createdAt,value
2023-02-24T00:00:32.032Z,21.00
2023-02-24T00:03:05.825Z,18.53
2023-02-24T00:05:39.251Z,28.20
2023-02-24T00:08:07.274Z,24.17
2023-02-24T00:10:37.465Z,28.80
2023-02-24T00:13:06.345Z,25.20
2023-02-24T00:15:34.097Z,23.30
2023-02-24T00:18:06.992Z,27.83
2023-02-24T00:20:34.864Z,23.23
2023-02-24T00:23:03.998Z,24.63
2023-02-24T00:25:31.691Z,25.50
2023-02-24T00:28:03.541Z,33.53
2023-02-24T00:30:32.863Z,29.13
2023-02-24T00:33:02.435Z,20.87
2023-02-24T00:35:30.355Z,21.73
2023-02-24T00:37:58.128Z,27.73
2023-02-24T00:40:30.204Z,26.90
2023-02-24T00:42:58.124Z,27.53
2023-02-24T00:45:25.804Z,27.00
2023-02-24T00:47:57.581Z,27.33
2023-02-24T00:50:25.461Z,28.87
2023-02-24T00:52:53.200Z,33.87
2023-02-24T00:55:23.369Z,28.00
2023-02-24T00:57:52.582Z,33.17
2023-02-24T01:00:23.334Z,35.70
2023-02-24T01:02:51.242Z,34.90
2023-02-24T01:05:19.857Z,31.73
2023-02-24T01:07:47.675Z,34.70
2023-02-24T01:10:18.223Z,31.73
2023-02-24T01:12:50.909Z,35.83
2023-02-24T01:15:20.784Z,27.47
2023-02-24T01:17:49.784Z,36.03
2023-02-24T01:20:18.418Z,40.37
2023-02-24T01:22:51.172Z,33.67
2023-02-24T01:25:20.305Z,30.10
2023-02-24T01:27:48.556Z,29.37
2023-02-24T01:30:16.766Z,33.77
2023-02-24T01:32:47.234Z,34.13
2023-02-24T01:35:15.692Z,31.73
2023-02-24T01:37:45.185Z,31.83
2023-02-24T01:40:18.595Z,32.10
2023-02-24T01:42:49.336Z,31.90
2023-02-24T01:45:21.269Z,34.80
2023-02-24T01:47:50.449Z,34.63
2023-02-24T01:50:21.575Z,32.03
2023-02-24T01:52:49.544Z,26.83
2023-02-24T01:55:20.898Z,33.20
2023-02-24T01:57:48.774Z,29.90
2023-02-24T02:00:33.076Z,30.47
2023-02-24T02:03:05.093Z,29.87
2023-02-24T02:05:32.990Z,28.97
2023-02-24T02:08:00.812Z,29.30
2023-02-24T02:10:29.643Z,27.13
2023-02-24T02:12:57.386Z,28.67
2023-02-24T02:15:25.300Z,28.23
2023-02-24T02:17:58.439Z,33.50
2023-02-24T02:21:01.715Z,32.80
2023-02-24T02:24:04.363Z,33.67
2023-02-24T02:27:02.627Z,32.93
2023-02-24T02:29:56.318Z,29.53
2023-02-24T02:32:52.578Z,24.90
2023-02-24T02:35:22.636Z,26.43
2023-02-24T02:37:53.474Z,29.40
2023-02-24T02:40:24.576Z,22.83
2023-02-24T02:42:55.382Z,34.50
2023-02-24T02:45:25.191Z,27.23
2023-02-24T02:47:54.893Z,25.67
2023-02-24T02:50:26.997Z,22.40
2023-02-24T02:52:57.018Z,16.37
2023-02-24T02:55:27.729Z,23.07
2023-02-24T02:57:56.097Z,20.57
2023-02-24T03:00:24.904Z,21.30
2023-02-24T03:02:55.211Z,26.00
2023-02-24T03:05:29.761Z,20.60
2023-02-24T03:07:58.602Z,22.43
2023-02-24T03:10:28.596Z,20.20
2023-02-24T03:12:58.193Z,22.80
2023-02-24T03:15:27.511Z,20.23
2023-02-24T03:17:56.882Z,20.53
2023-02-24T03:20:29.357Z,23.73
2023-02-24T03:23:00.306Z,19.47
2023-02-24T03:25:33.905Z,19.80
2023-02-24T03:28:03.880Z,16.43
2023-02-24T03:30:35.590Z,17.87
2023-02-24T03:33:06.487Z,18.27
2023-02-24T03:35:38.823Z,19.87
2023-02-24T03:38:06.625Z,16.83
2023-02-24T03:40:36.053Z,16.60
2023-02-24T03:43:07.608Z,16.43
2023-02-24T03:45:39.055Z,21.60
2023-02-24T03:48:07.256Z,16.03
2023-02-24T03:50:38.031Z,14.13
2023-02-24T03:53:13.914Z,17.70
2023-02-24T03:55:47.085Z,18.97
2023-02-24T03:58:18.270Z,18.83
2023-02-24T04:00:49.676Z,17.10
2023-02-24T04:03:26.576Z,20.97
2023-02-24T04:06:01.762Z,16.13
2023-02-24T04:08:31.192Z,22.37
2023-02-24T04:11:00.300Z,18.67
2023-02-24T04:13:35.326Z,15.53
2023-02-24T04:16:05.213Z,17.57
2023-02-24T04:18:33.100Z,16.73
2023-02-24T04:21:03.582Z,20.60
2023-02-24T04:23:32.995Z,18.30
2023-02-24T04:26:00.876Z,17.10
2023-02-24T04:28:28.711Z,9.40
2023-02-24T04:30:57.801Z,11.83
2023-02-24T04:33:27.706Z,17.80
2023-02-24T04:35:55.390Z,14.90
2023-02-24T04:38:24.981Z,15.37
2023-02-24T04:40:52.904Z,14.00
2023-02-24T04:43:20.834Z,17.67
2023-02-24T04:45:48.540Z,14.60
2023-02-24T04:48:16.209Z,18.03
2023-02-24T04:50:44.623Z,13.20
2023-02-24T04:53:13.425Z,16.53
2023-02-24T04:55:48.633Z,14.30
2023-02-24T04:58:19.169Z,8.50
2023-02-24T05:00:48.840Z,9.50
2023-02-24T05:03:16.978Z,10.80
2023-02-24T05:05:51.979Z,11.20
2023-02-24T05:08:19.960Z,10.00
2023-02-24T05:10:49.187Z,13.50
2023-02-24T05:13:17.828Z,11.30
2023-02-24T05:15:46.189Z,13.57
2023-02-24T05:18:17.068Z,10.30
2023-02-24T05:21:03.662Z,6.47
2023-02-24T05:23:33.848Z,9.70
2023-02-24T05:26:08.534Z,9.40
2023-02-24T05:28:37.845Z,9.07
2023-02-24T05:31:15.045Z,12.13
2023-02-24T05:33:43.527Z,14.97
2023-02-24T05:36:18.005Z,8.07
2023-02-24T05:38:46.301Z,14.97
2023-02-24T05:41:17.602Z,6.80
2023-02-24T05:43:48.144Z,10.50
2023-02-24T05:46:20.442Z,7.70
2023-02-24T05:48:51.715Z,6.77
2023-02-24T05:51:19.894Z,9.17
2023-02-24T05:56:39.439Z,6.40
2023-02-24T05:59:10.699Z,10.40
2023-02-24T06:01:41.318Z,9.67
2023-02-24T06:04:20.706Z,10.17
2023-02-24T06:06:52.396Z,15.17
2023-02-24T06:09:23.106Z,8.83
2023-02-24T06:11:52.209Z,11.63
2023-02-24T06:14:21.407Z,10.87
2023-02-24T06:16:49.426Z,16.60
2023-02-24T06:19:17.690Z,17.73
2023-02-24T06:21:45.888Z,18.70
2023-02-24T06:24:15.116Z,16.27
2023-02-24T06:26:44.165Z,13.00
2023-02-24T06:29:15.279Z,17.27
2023-02-24T06:31:43.815Z,20.23
2023-02-24T06:34:13.105Z,23.33
2023-02-24T06:36:41.096Z,16.23
2023-02-24T06:39:13.823Z,13.73
2023-02-24T06:41:42.522Z,15.33
2023-02-24T06:44:10.453Z,14.00
2023-02-24T06:46:39.525Z,10.10
2023-02-24T06:49:07.498Z,13.93
2023-02-24T06:51:35.553Z,17.33
2023-02-24T06:54:03.549Z,14.87
2023-02-24T06:56:34.754Z,13.93
2023-02-24T06:59:04.553Z,12.50
2023-02-24T07:01:34.626Z,13.70
2023-02-24T07:04:17.663Z,10.23
2023-02-24T07:06:47.792Z,13.20
2023-02-24T07:09:16.708Z,17.40
2023-02-24T07:11:46.902Z,15.07
2023-02-24T07:14:15.015Z,17.57
2023-02-24T07:16:45.493Z,15.43
2023-02-24T07:19:16.464Z,14.10
2023-02-24T07:21:49.855Z,19.73
2023-02-24T07:24:24.931Z,13.40
2023-02-24T07:26:57.189Z,9.83
2023-02-24T07:29:25.298Z,13.67
2023-02-24T07:31:54.992Z,16.80
2023-02-24T07:34:24.652Z,11.47
2023-02-24T07:36:53.135Z,19.73
2023-02-24T07:39:22.908Z,15.63
2023-02-24T07:41:51.322Z,8.97
2023-02-24T07:44:19.753Z,15.23
2023-02-24T07:46:49.038Z,11.97
2023-02-24T07:49:19.827Z,9.80
2023-02-24T07:51:52.624Z,10.20
2023-02-24T07:54:21.095Z,10.23
2023-02-24T07:56:56.727Z,7.80
2023-02-24T07:59:25.150Z,8.53
2023-02-24T08:01:55.858Z,13.83
2023-02-24T08:04:25.387Z,9.70
2023-02-24T08:07:02.500Z,8.97
2023-02-24T08:10:03.844Z,12.17
2023-02-24T08:12:35.063Z,9.43
2023-02-24T08:15:08.818Z,11.63
2023-02-24T08:17:36.566Z,9.70
2023-02-24T08:20:18.438Z,8.17
2023-02-24T08:22:47.768Z,12.00
2023-02-24T08:25:18.873Z,8.80
2023-02-24T08:28:05.123Z,11.90
2023-02-24T08:30:38.688Z,10.40
2023-02-24T08:33:07.078Z,13.07
2023-02-24T08:35:36.422Z,9.60
2023-02-24T08:38:07.704Z,12.47
2023-02-24T08:40:39.565Z,10.47
2023-02-24T08:43:17.138Z,11.67
2023-02-24T08:45:45.503Z,13.50
2023-02-24T08:48:26.176Z,16.80
2023-02-24T08:50:55.530Z,13.20
2023-02-24T08:53:29.651Z,9.50
2023-02-24T08:55:57.495Z,15.23
2023-02-24T08:58:27.093Z,11.93
2023-02-24T09:00:56.840Z,13.17
2023-02-24T09:03:33.702Z,11.17
2023-02-24T09:06:05.627Z,14.67
2023-02-24T09:08:34.797Z,13.20
2023-02-24T09:11:07.767Z,12.77
2023-02-24T09:13:36.869Z,9.13
2023-02-24T09:16:05.536Z,10.03
2023-02-24T09:18:38.353Z,10.27
2023-02-24T09:21:28.218Z,11.30
2023-02-24T09:23:57.298Z,8.30
2023-02-24T09:26:25.101Z,9.73
2023-02-24T09:28:56.655Z,9.83
2023-02-24T09:31:40.412Z,9.67
2023-02-24T09:34:10.417Z,6.73
2023-02-24T09:36:44.958Z,9.73
2023-02-24T09:39:15.502Z,8.70
2023-02-24T09:41:57.542Z,10.83
2023-02-24T09:44:33.259Z,12.53
2023-02-24T09:47:08.886Z,12.27
2023-02-24T09:49:46.695Z,18.13
2023-02-24T09:52:17.430Z,7.03
2023-02-24T09:55:15.535Z,9.47
2023-02-24T10:00:59.879Z,7.30
2023-02-24T10:03:42.739Z,8.13
2023-02-24T10:06:16.223Z,10.23
2023-02-24T10:08:45.612Z,12.30
2023-02-24T10:11:15.799Z,8.53
2023-02-24T10:13:46.413Z,7.33
2023-02-24T10:16:16.874Z,8.20
2023-02-24T10:18:46.836Z,8.97
2023-02-24T10:21:21.058Z,7.60
2023-02-24T10:23:56.697Z,6.47
2023-02-24T10:26:31.938Z,8.00
2023-02-24T10:29:09.110Z,7.73
2023-02-24T10:31:41.315Z,9.23
2023-02-24T10:34:10.495Z,6.77
2023-02-24T10:36:39.199Z,10.57
2023-02-24T10:39:10.938Z,8.57
2023-02-24T10:41:47.572Z,7.43
2023-02-24T10:44:24.056Z,11.10
2023-02-24T10:47:11.374Z,7.23
2023-02-24T10:49:50.814Z,8.90
2023-02-24T10:52:37.696Z,7.87
2023-02-24T10:55:24.576Z,12.70
2023-02-24T10:58:05.915Z,8.70
2023-02-24T11:01:01.092Z,7.87
2023-02-24T11:03:41.878Z,8.73
2023-02-24T11:06:30.661Z,9.00
2023-02-24T11:09:19.080Z,9.93
2023-02-24T11:12:04.889Z,8.13
2023-02-24T11:14:51.901Z,10.70
2023-02-24T11:17:23.396Z,6.73
2023-02-24T11:19:55.852Z,10.03
2023-02-24T11:22:26.244Z,10.60
2023-02-24T11:24:53.961Z,10.93
2023-02-24T11:27:23.469Z,12.13
2023-02-24T11:30:06.314Z,10.27
2023-02-24T11:32:45.565Z,9.07
2023-02-24T11:35:16.108Z,12.70
2023-02-24T11:37:45.301Z,12.10
2023-02-24T11:40:16.242Z,8.83
2023-02-24T11:42:46.187Z,12.97
2023-02-24T11:45:22.697Z,13.07
2023-02-24T11:47:53.192Z,12.00
2023-02-24T11:50:30.736Z,13.07
2023-02-24T11:52:59.316Z,11.30
2023-02-24T11:55:34.375Z,9.50
2023-02-24T11:58:02.069Z,11.87
2023-02-24T12:00:33.761Z,13.57
2023-02-24T12:03:04.567Z,10.07
2023-02-24T12:05:36.969Z,11.30
2023-02-24T12:08:06.781Z,7.50
2023-02-24T12:10:36.240Z,12.93
2023-02-24T12:13:06.777Z,13.37
2023-02-24T12:15:40.274Z,14.27
2023-02-24T12:18:13.970Z,15.80
2023-02-24T12:20:44.024Z,11.47
2023-02-24T12:23:18.015Z,11.47
2023-02-24T12:25:58.910Z,13.17
2023-02-24T12:28:34.074Z,10.17
2023-02-24T12:31:08.945Z,9.83
2023-02-24T12:38:53.069Z,9.60
2023-02-24T12:41:32.217Z,12.63
2023-02-24T12:44:03.374Z,12.77
2023-02-24T12:46:34.526Z,8.30
2023-02-24T12:49:12.931Z,11.63
2023-02-24T12:51:43.524Z,11.03
2023-02-24T12:54:15.654Z,12.97
2023-02-24T12:56:48.604Z,12.40
2023-02-24T12:59:18.597Z,12.20
2023-02-24T13:01:55.236Z,12.90
2023-02-24T13:04:38.400Z,14.07
2023-02-24T13:07:10.936Z,11.70
2023-02-24T13:09:42.475Z,12.70
2023-02-24T13:12:14.516Z,14.90
2023-02-24T13:14:42.217Z,14.13
2023-02-24T13:17:20.402Z,13.63
2023-02-24T13:19:49.824Z,10.27
2023-02-24T13:22:28.779Z,9.67
2023-02-24T13:25:02.780Z,14.83
2023-02-24T13:27:31.105Z,13.10
2023-02-24T13:30:00.846Z,12.27
2023-02-24T13:32:32.621Z,13.20
2023-02-24T13:35:04.237Z,9.73
2023-02-24T13:37:34.464Z,11.03
2023-02-24T13:40:02.339Z,9.40
2023-02-24T13:42:30.812Z,13.23
2023-02-24T13:45:04.475Z,14.00
2023-02-24T13:48:04.646Z,10.27
2023-02-24T13:50:33.552Z,10.97
2023-02-24T13:53:14.421Z,12.87
2023-02-24T13:55:50.316Z,11.40
2023-02-24T13:58:38.226Z,10.37
2023-02-24T14:01:09.742Z,13.23
2023-02-24T14:03:40.562Z,11.47
2023-02-24T14:06:08.557Z,11.07
2023-02-24T14:08:42.493Z,12.93
2023-02-24T14:11:11.899Z,10.33
2023-02-24T14:13:40.052Z,13.03
2023-02-24T14:16:18.991Z,11.93
2023-02-24T14:18:54.792Z,13.63
2023-02-24T14:21:48.193Z,10.43
2023-02-24T14:24:20.644Z,9.50
2023-02-24T14:26:49.446Z,11.23
2023-02-24T14:29:20.235Z,11.50
2023-02-24T14:31:49.885Z,8.63
2023-02-24T14:34:23.136Z,13.67
2023-02-24T14:36:56.836Z,11.37
2023-02-24T14:39:26.666Z,8.37
2023-02-24T14:42:05.789Z,9.23
2023-02-24T14:44:42.580Z,11.27
2023-02-24T14:47:11.193Z,10.00
2023-02-24T14:49:42.394Z,12.00
2023-02-24T14:52:11.860Z,9.70
2023-02-24T14:54:44.726Z,13.73
2023-02-24T14:57:14.383Z,13.40
2023-02-24T14:59:43.115Z,10.23
2023-02-24T15:02:14.940Z,9.13
2023-02-24T15:04:44.964Z,9.47
2023-02-24T15:07:18.422Z,8.43
2023-02-24T15:09:46.849Z,10.13
2023-02-24T15:12:23.188Z,10.57
2023-02-24T15:14:54.912Z,13.10
2023-02-24T15:17:26.200Z,10.03
2023-02-24T15:19:55.692Z,10.47
2023-02-24T15:22:25.853Z,12.87
2023-02-24T15:24:55.875Z,15.53
2023-02-24T15:27:28.386Z,12.83
2023-02-24T15:30:02.126Z,12.93
2023-02-24T15:32:31.879Z,13.90
2023-02-24T15:35:04.441Z,16.90
2023-02-24T15:37:37.268Z,12.43
2023-02-24T15:40:07.790Z,14.97
2023-02-24T15:42:36.163Z,14.83
2023-02-24T15:45:05.513Z,10.83
2023-02-24T15:47:43.604Z,17.70
2023-02-24T15:50:13.382Z,11.60
2023-02-24T15:52:43.278Z,12.03
2023-02-24T15:55:12.183Z,12.00
2023-02-24T15:57:40.066Z,11.40
2023-02-24T16:00:13.610Z,20.07
2023-02-24T16:02:41.721Z,12.03
2023-02-24T16:05:13.247Z,13.87
2023-02-24T16:07:41.144Z,12.43
2023-02-24T16:10:17.452Z,13.40
2023-02-24T16:12:47.603Z,9.57
2023-02-24T16:15:18.666Z,17.23
2023-02-24T16:17:47.228Z,16.17
2023-02-24T16:20:18.103Z,13.73
2023-02-24T16:22:46.187Z,10.00
2023-02-24T16:25:16.391Z,12.57
2023-02-24T16:27:44.439Z,11.63
2023-02-24T16:30:21.440Z,14.17
2023-02-24T16:32:50.659Z,14.00
2023-02-24T16:35:20.044Z,12.70
2023-02-24T16:37:48.217Z,14.03
2023-02-24T16:40:25.260Z,15.60
2023-02-24T16:42:53.385Z,13.53
2023-02-24T16:45:21.317Z,14.30
2023-02-24T16:47:49.829Z,12.90
2023-02-24T16:50:24.231Z,12.43
2023-02-24T16:52:53.722Z,13.10
2023-02-24T16:55:21.548Z,16.70
2023-02-24T16:57:49.644Z,13.33
2023-02-24T17:00:17.829Z,13.53
2023-02-24T17:02:52.712Z,8.70
2023-02-24T17:05:23.026Z,9.03
2023-02-24T17:07:51.361Z,8.03
2023-02-24T17:10:20.810Z,8.27
2023-02-24T17:12:48.644Z,7.60
2023-02-24T17:15:17.586Z,8.63
2023-02-24T17:17:48.159Z,11.63
2023-02-24T17:20:16.770Z,14.17
2023-02-24T17:22:47.007Z,13.07
2023-02-24T17:25:15.618Z,16.37
2023-02-24T17:27:43.847Z,16.57
2023-02-24T17:30:13.638Z,14.47
2023-02-24T17:32:44.584Z,12.30
2023-02-24T17:35:14.850Z,15.10
2023-02-24T17:37:42.633Z,16.23
2023-02-24T17:40:13.630Z,14.10
2023-02-24T17:42:41.699Z,13.70
2023-02-24T17:45:11.089Z,13.03
2023-02-24T17:47:40.075Z,17.23
2023-02-24T17:50:12.664Z,15.00
2023-02-24T17:52:41.321Z,16.03
2023-02-24T17:55:11.694Z,16.13
2023-02-24T17:57:40.700Z,19.37
2023-02-24T18:00:09.293Z,13.93
2023-02-24T18:02:37.205Z,16.20
2023-02-24T18:05:05.510Z,15.80
2023-02-24T18:07:33.293Z,17.97
2023-02-24T18:10:09.933Z,18.77
2023-02-24T18:12:39.878Z,17.93
2023-02-24T18:15:09.618Z,17.90
2023-02-24T18:17:37.913Z,20.30
2023-02-24T18:20:06.574Z,17.23
2023-02-24T18:22:34.352Z,15.53
2023-02-24T18:25:02.245Z,13.10
2023-02-24T18:27:30.286Z,14.00
2023-02-24T18:29:59.785Z,19.60
2023-02-24T18:32:27.928Z,19.43
2023-02-24T18:34:55.832Z,16.17
2023-02-24T18:37:23.481Z,17.53
2023-02-24T18:39:53.257Z,19.13
2023-02-24T18:42:21.002Z,15.83
2023-02-24T18:44:48.773Z,15.23
2023-02-24T18:47:17.898Z,11.10
2023-02-24T18:49:45.647Z,13.37
2023-02-24T18:52:13.360Z,10.37
2023-02-24T18:54:46.684Z,5.87
2023-02-24T18:57:14.558Z,5.40
2023-02-24T18:59:42.249Z,5.00
2023-02-24T19:02:11.709Z,4.23
2023-02-24T19:04:40.830Z,7.40
2023-02-24T19:07:08.657Z,5.53
2023-02-24T19:09:36.413Z,4.27
2023-02-24T19:12:04.360Z,7.20
2023-02-24T19:14:32.255Z,5.50
2023-02-24T19:17:05.076Z,6.20
2023-02-24T19:19:32.830Z,5.83
2023-02-24T19:22:01.853Z,6.43
2023-02-24T19:24:30.428Z,3.13
2023-02-24T19:26:58.102Z,4.00
2023-02-24T19:29:27.954Z,8.87
2023-02-24T19:31:57.719Z,3.53
2023-02-24T19:34:25.488Z,5.43
2023-02-24T19:36:53.184Z,3.00
2023-02-24T19:39:25.346Z,4.23
2023-02-24T19:41:53.245Z,5.90
2023-02-24T19:44:20.910Z,7.23
2023-02-24T19:46:49.670Z,3.93
2023-02-24T19:49:17.319Z,9.03
2023-02-24T19:51:47.171Z,4.43
2023-02-24T19:54:16.146Z,2.37
2023-02-24T19:56:45.186Z,5.03
2023-02-24T19:59:12.865Z,6.63
2023-02-24T20:01:40.591Z,5.43
2023-02-24T20:04:08.507Z,9.73
2023-02-24T20:06:36.938Z,10.07
2023-02-24T20:09:05.994Z,9.23
2023-02-24T20:11:35.608Z,4.30
2023-02-24T20:14:04.687Z,6.93
2023-02-24T20:16:34.711Z,7.17
2023-02-24T20:19:02.620Z,5.40
2023-02-24T20:21:30.528Z,5.47
2023-02-24T20:23:59.927Z,6.87
2023-02-24T20:26:28.401Z,8.60
2023-02-24T20:28:56.666Z,22.03
2023-02-24T20:31:25.669Z,11.43
2023-02-24T20:33:53.625Z,10.97
2023-02-24T20:36:22.592Z,13.53
2023-02-24T20:38:50.569Z,13.13
2023-02-24T20:41:18.593Z,11.20
2023-02-24T20:43:46.263Z,16.10
2023-02-24T20:46:14.085Z,12.33
2023-02-24T20:48:43.226Z,11.10
2023-02-24T20:51:17.418Z,15.40
2023-02-24T20:53:56.587Z,11.90
2023-02-24T20:56:25.514Z,14.40
2023-02-24T20:58:54.171Z,9.77
2023-02-24T21:01:21.908Z,10.20
2023-02-24T21:03:51.488Z,13.93
2023-02-24T21:06:19.254Z,13.77
2023-02-24T21:08:46.967Z,12.17
2023-02-24T21:11:15.229Z,12.10
2023-02-24T21:13:43.218Z,15.20
2023-02-24T21:16:11.388Z,12.47
2023-02-24T21:18:39.289Z,12.57
2023-02-24T21:21:08.883Z,11.53
2023-02-24T21:23:36.843Z,15.63
2023-02-24T21:26:04.577Z,13.47
2023-02-24T21:28:32.304Z,13.63
2023-02-24T21:31:00.210Z,10.03
2023-02-24T21:33:28.022Z,16.47
2023-02-24T21:35:59.041Z,14.43
2023-02-24T21:38:28.328Z,13.03
2023-02-24T21:40:55.982Z,14.43
2023-02-24T21:43:24.289Z,14.80
2023-02-24T21:45:51.969Z,14.80
2023-02-24T21:48:19.959Z,15.00
2023-02-24T21:50:47.629Z,16.50
2023-02-24T21:53:15.308Z,13.93
2023-02-24T21:55:44.548Z,16.27
2023-02-24T21:58:13.215Z,14.33
2023-02-24T22:00:42.366Z,15.37
2023-02-24T22:03:10.096Z,12.00
2023-02-24T22:05:37.768Z,13.47
2023-02-24T22:08:05.444Z,13.37
2023-02-24T22:10:33.084Z,18.50
2023-02-24T22:13:02.121Z,15.17
2023-02-24T22:15:29.775Z,10.13
2023-02-24T22:17:57.439Z,12.07
2023-02-24T22:20:25.105Z,14.67
2023-02-24T22:22:52.774Z,15.40
2023-02-24T22:25:20.495Z,12.33
2023-02-24T22:27:48.177Z,13.43
2023-02-24T22:30:17.662Z,15.43
2023-02-24T22:32:45.331Z,12.17
2023-02-24T22:35:13.057Z,13.90
2023-02-24T22:37:40.752Z,9.07
2023-02-24T22:40:09.364Z,19.03
2023-02-24T22:42:37.088Z,11.07
2023-02-24T22:45:07.114Z,15.13
2023-02-24T22:47:36.195Z,9.27
2023-02-24T22:50:03.932Z,8.87
2023-02-24T22:52:32.444Z,11.53
2023-02-24T22:55:00.567Z,16.03
2023-02-24T22:57:30.427Z,12.30
2023-02-24T22:59:58.105Z,11.63
2023-02-24T23:02:26.682Z,15.90
2023-02-24T23:04:57.227Z,16.80
2023-02-24T23:07:24.977Z,11.63
2023-02-24T23:09:53.367Z,15.80
2023-02-24T23:12:22.205Z,19.27
2023-02-24T23:14:50.116Z,10.30
2023-02-24T23:17:17.783Z,10.00
2023-02-24T23:19:45.437Z,11.03
2023-02-24T23:22:15.227Z,9.97
2023-02-24T23:24:43.026Z,17.83
2023-02-24T23:27:11.604Z,11.73
2023-02-24T23:29:39.287Z,15.50
2023-02-24T23:32:07.225Z,13.53
2023-02-24T23:34:35.000Z,14.70
2023-02-24T23:37:02.683Z,10.77
2023-02-24T23:39:31.734Z,11.20
2023-02-24T23:41:59.490Z,10.70
2023-02-24T23:44:27.298Z,7.93
2023-02-24T23:46:58.048Z,11.43
2023-02-24T23:49:31.147Z,10.50
2023-02-24T23:52:04.053Z,14.30
2023-02-24T23:54:33.164Z,16.53
2023-02-24T23:57:01.026Z,10.67
2023-02-24T23:59:28.716Z,14.47
